sensor_id;sensor_type;location;lat;lon;timestamp;temperature;humidity
22194;DHT22;11262;50.308;9.270;2022-07-19T00:01:34;20.00;87.00
22194;DHT22;11262;50.308;9.270;2022-07-19T00:03:59;19.90;86.70
22194;DHT22;11262;50.308;9.270;2022-07-19T00:06:25;19.90;87.00
22194;DHT22;11262;50.308;9.270;2022-07-19T00:08:50;20.00;87.30
22194;DHT22;11262;50.308;9.270;2022-07-19T00:11:16;19.90;87.50
22194;DHT22;11262;50.308;9.270;2022-07-19T00:13:42;19.90;88.20
22194;DHT22;11262;50.308;9.270;2022-07-19T00:16:07;19.80;88.70
22194;DHT22;11262;50.308;9.270;2022-07-19T00:18:33;19.70;89.00
22194;DHT22;11262;50.308;9.270;2022-07-19T00:20:59;19.60;88.60
22194;DHT22;11262;50.308;9.270;2022-07-19T00:23:24;19.60;88.20
22194;DHT22;11262;50.308;9.270;2022-07-19T00:25:50;19.60;89.40
22194;DHT22;11262;50.308;9.270;2022-07-19T00:28:15;19.50;88.80
22194;DHT22;11262;50.308;9.270;2022-07-19T00:30:41;19.50;89.00
22194;DHT22;11262;50.308;9.270;2022-07-19T00:33:07;19.60;88.80
22194;DHT22;11262;50.308;9.270;2022-07-19T00:35:38;19.50;89.10
22194;DHT22;11262;50.308;9.270;2022-07-19T00:38:05;19.50;90.00
22194;DHT22;11262;50.308;9.270;2022-07-19T00:40:31;19.40;89.30
22194;DHT22;11262;50.308;9.270;2022-07-19T00:42:57;19.30;89.10
22194;DHT22;11262;50.308;9.270;2022-07-19T00:45:23;19.30;89.90
22194;DHT22;11262;50.308;9.270;2022-07-19T00:47:49;19.20;90.00
22194;DHT22;11262;50.308;9.270;2022-07-19T00:50:14;19.20;90.10
22194;DHT22;11262;50.308;9.270;2022-07-19T00:52:42;19.20;90.30
22194;DHT22;11262;50.308;9.270;2022-07-19T00:55:09;19.10;90.20
22194;DHT22;11262;50.308;9.270;2022-07-19T00:57:36;19.10;90.40
22194;DHT22;11262;50.308;9.270;2022-07-19T01:00:05;19.10;90.70
22194;DHT22;11262;50.308;9.270;2022-07-19T01:02:32;19.10;90.50
22194;DHT22;11262;50.308;9.270;2022-07-19T01:04:58;19.10;90.60
22194;DHT22;11262;50.308;9.270;2022-07-19T01:07:24;19.00;90.80
22194;DHT22;11262;50.308;9.270;2022-07-19T01:09:50;19.00;91.10
22194;DHT22;11262;50.308;9.270;2022-07-19T01:12:17;19.00;91.40
22194;DHT22;11262;50.308;9.270;2022-07-19T01:14:42;19.00;91.40
22194;DHT22;11262;50.308;9.270;2022-07-19T01:17:08;19.00;91.30
22194;DHT22;11262;50.308;9.270;2022-07-19T01:19:33;19.00;91.50
22194;DHT22;11262;50.308;9.270;2022-07-19T01:21:59;19.00;91.70
22194;DHT22;11262;50.308;9.270;2022-07-19T01:24:25;19.00;91.40
22194;DHT22;11262;50.308;9.270;2022-07-19T01:26:50;19.00;91.60
22194;DHT22;11262;50.308;9.270;2022-07-19T01:29:17;19.00;91.80
22194;DHT22;11262;50.308;9.270;2022-07-19T01:31:42;18.90;92.00
22194;DHT22;11262;50.308;9.270;2022-07-19T01:34:08;18.80;92.30
22194;DHT22;11262;50.308;9.270;2022-07-19T01:36:34;18.80;92.30
22194;DHT22;11262;50.308;9.270;2022-07-19T01:39:00;18.80;92.20
22194;DHT22;11262;50.308;9.270;2022-07-19T01:41:26;18.80;91.90
22194;DHT22;11262;50.308;9.270;2022-07-19T01:43:51;18.80;92.10
22194;DHT22;11262;50.308;9.270;2022-07-19T01:46:17;18.60;92.40
22194;DHT22;11262;50.308;9.270;2022-07-19T01:48:43;18.60;92.10
22194;DHT22;11262;50.308;9.270;2022-07-19T01:51:09;18.50;92.30
22194;DHT22;11262;50.308;9.270;2022-07-19T01:53:35;18.40;92.50
22194;DHT22;11262;50.308;9.270;2022-07-19T01:56:04;18.40;92.10
22194;DHT22;11262;50.308;9.270;2022-07-19T01:58:30;18.40;92.80
22194;DHT22;11262;50.308;9.270;2022-07-19T02:00:55;18.30;92.80
22194;DHT22;11262;50.308;9.270;2022-07-19T02:03:21;18.30;92.90
22194;DHT22;11262;50.308;9.270;2022-07-19T02:05:47;18.30;92.80
22194;DHT22;11262;50.308;9.270;2022-07-19T02:08:13;18.30;92.60
22194;DHT22;11262;50.308;9.270;2022-07-19T02:10:38;18.30;92.60
22194;DHT22;11262;50.308;9.270;2022-07-19T02:13:04;18.30;92.60
22194;DHT22;11262;50.308;9.270;2022-07-19T02:15:29;18.30;92.70
22194;DHT22;11262;50.308;9.270;2022-07-19T02:17:55;18.20;92.80
22194;DHT22;11262;50.308;9.270;2022-07-19T02:20:21;18.20;93.20
22194;DHT22;11262;50.308;9.270;2022-07-19T02:22:47;18.10;92.90
22194;DHT22;11262;50.308;9.270;2022-07-19T02:25:12;18.10;92.70
22194;DHT22;11262;50.308;9.270;2022-07-19T02:27:38;18.10;92.90
22194;DHT22;11262;50.308;9.270;2022-07-19T02:30:05;18.00;93.00
22194;DHT22;11262;50.308;9.270;2022-07-19T02:32:30;18.10;92.90
22194;DHT22;11262;50.308;9.270;2022-07-19T02:34:56;18.00;92.70
22194;DHT22;11262;50.308;9.270;2022-07-19T02:37:22;18.00;92.90
22194;DHT22;11262;50.308;9.270;2022-07-19T02:39:47;17.90;92.90
22194;DHT22;11262;50.308;9.270;2022-07-19T02:42:13;17.90;93.10
22194;DHT22;11262;50.308;9.270;2022-07-19T02:44:38;18.00;92.80
22194;DHT22;11262;50.308;9.270;2022-07-19T02:47:04;18.00;92.90
22194;DHT22;11262;50.308;9.270;2022-07-19T02:49:29;18.00;92.80
22194;DHT22;11262;50.308;9.270;2022-07-19T02:51:55;17.90;93.00
22194;DHT22;11262;50.308;9.270;2022-07-19T02:54:21;18.00;92.90
22194;DHT22;11262;50.308;9.270;2022-07-19T02:56:46;17.90;93.10
22194;DHT22;11262;50.308;9.270;2022-07-19T02:59:12;17.90;93.40
22194;DHT22;11262;50.308;9.270;2022-07-19T03:01:37;17.90;93.10
22194;DHT22;11262;50.308;9.270;2022-07-19T03:04:03;17.90;93.70
22194;DHT22;11262;50.308;9.270;2022-07-19T03:06:29;17.90;93.70
22194;DHT22;11262;50.308;9.270;2022-07-19T03:08:54;18.00;93.40
22194;DHT22;11262;50.308;9.270;2022-07-19T03:11:20;17.90;93.70
22194;DHT22;11262;50.308;9.270;2022-07-19T03:13:46;17.90;93.80
22194;DHT22;11262;50.308;9.270;2022-07-19T03:16:11;17.90;93.30
22194;DHT22;11262;50.308;9.270;2022-07-19T03:18:37;17.80;93.50
22194;DHT22;11262;50.308;9.270;2022-07-19T03:21:02;17.80;93.70
22194;DHT22;11262;50.308;9.270;2022-07-19T03:23:31;17.70;93.80
22194;DHT22;11262;50.308;9.270;2022-07-19T03:25:57;17.60;94.00
22194;DHT22;11262;50.308;9.270;2022-07-19T03:28:23;17.60;94.10
22194;DHT22;11262;50.308;9.270;2022-07-19T03:30:48;17.60;93.90
22194;DHT22;11262;50.308;9.270;2022-07-19T03:33:14;17.60;94.10
22194;DHT22;11262;50.308;9.270;2022-07-19T03:35:43;17.60;94.20
22194;DHT22;11262;50.308;9.270;2022-07-19T03:38:11;17.60;94.10
22194;DHT22;11262;50.308;9.270;2022-07-19T03:40:37;17.60;94.00
22194;DHT22;11262;50.308;9.270;2022-07-19T03:43:03;17.60;93.80
22194;DHT22;11262;50.308;9.270;2022-07-19T03:45:28;17.60;93.70
22194;DHT22;11262;50.308;9.270;2022-07-19T03:47:54;17.60;93.70
22194;DHT22;11262;50.308;9.270;2022-07-19T03:50:19;17.60;93.90
22194;DHT22;11262;50.308;9.270;2022-07-19T03:52:45;17.60;93.50
22194;DHT22;11262;50.308;9.270;2022-07-19T03:55:10;17.60;93.70
22194;DHT22;11262;50.308;9.270;2022-07-19T03:57:36;17.60;93.80
22194;DHT22;11262;50.308;9.270;2022-07-19T04:00:03;17.60;94.20
22194;DHT22;11262;50.308;9.270;2022-07-19T04:02:29;17.60;94.20
22194;DHT22;11262;50.308;9.270;2022-07-19T04:04:55;17.60;93.90
22194;DHT22;11262;50.308;9.270;2022-07-19T04:07:20;17.60;94.10
22194;DHT22;11262;50.308;9.270;2022-07-19T04:09:46;17.60;94.50
22194;DHT22;11262;50.308;9.270;2022-07-19T04:12:12;17.60;95.10
22194;DHT22;11262;50.308;9.270;2022-07-19T04:14:37;17.60;95.10
22194;DHT22;11262;50.308;9.270;2022-07-19T04:17:03;17.60;95.10
22194;DHT22;11262;50.308;9.270;2022-07-19T04:19:30;17.60;94.60
22194;DHT22;11262;50.308;9.270;2022-07-19T04:21:56;17.70;95.50
22194;DHT22;11262;50.308;9.270;2022-07-19T04:24:21;17.70;95.70
22194;DHT22;11262;50.308;9.270;2022-07-19T04:26:47;17.70;95.10
22194;DHT22;11262;50.308;9.270;2022-07-19T04:29:12;17.80;95.50
22194;DHT22;11262;50.308;9.270;2022-07-19T04:31:38;17.90;95.40
22194;DHT22;11262;50.308;9.270;2022-07-19T04:34:03;18.00;96.50
22194;DHT22;11262;50.308;9.270;2022-07-19T04:36:29;18.00;96.70
22194;DHT22;11262;50.308;9.270;2022-07-19T04:38:55;18.00;96.50
22194;DHT22;11262;50.308;9.270;2022-07-19T04:41:20;18.10;96.50
22194;DHT22;11262;50.308;9.270;2022-07-19T04:43:46;18.20;97.20
22194;DHT22;11262;50.308;9.270;2022-07-19T04:46:11;18.20;98.00
22194;DHT22;11262;50.308;9.270;2022-07-19T04:48:37;18.40;96.40
22194;DHT22;11262;50.308;9.270;2022-07-19T04:51:02;18.40;96.00
22194;DHT22;11262;50.308;9.270;2022-07-19T04:53:28;18.50;96.30
22194;DHT22;11262;50.308;9.270;2022-07-19T04:55:54;18.60;95.60
22194;DHT22;11262;50.308;9.270;2022-07-19T04:58:19;18.70;94.50
22194;DHT22;11262;50.308;9.270;2022-07-19T05:00:45;18.80;94.40
22194;DHT22;11262;50.308;9.270;2022-07-19T05:03:10;19.00;94.00
22194;DHT22;11262;50.308;9.270;2022-07-19T05:05:36;19.10;93.50
22194;DHT22;11262;50.308;9.270;2022-07-19T05:08:01;19.20;93.30
22194;DHT22;11262;50.308;9.270;2022-07-19T05:10:27;19.30;92.70
22194;DHT22;11262;50.308;9.270;2022-07-19T05:12:53;19.40;92.60
22194;DHT22;11262;50.308;9.270;2022-07-19T05:15:18;19.50;91.90
22194;DHT22;11262;50.308;9.270;2022-07-19T05:17:44;19.50;91.60
22194;DHT22;11262;50.308;9.270;2022-07-19T05:20:10;19.60;91.10
22194;DHT22;11262;50.308;9.270;2022-07-19T05:22:36;19.70;90.90
22194;DHT22;11262;50.308;9.270;2022-07-19T05:25:02;19.80;90.70
22194;DHT22;11262;50.308;9.270;2022-07-19T05:27:28;19.90;90.70
22194;DHT22;11262;50.308;9.270;2022-07-19T05:29:54;20.00;90.60
22194;DHT22;11262;50.308;9.270;2022-07-19T05:32:19;20.10;89.50
22194;DHT22;11262;50.308;9.270;2022-07-19T05:34:45;20.20;88.50
22194;DHT22;11262;50.308;9.270;2022-07-19T05:37:11;20.30;88.50
22194;DHT22;11262;50.308;9.270;2022-07-19T05:39:36;20.40;88.50
22194;DHT22;11262;50.308;9.270;2022-07-19T05:42:02;20.60;88.40
22194;DHT22;11262;50.308;9.270;2022-07-19T05:44:28;20.70;88.40
22194;DHT22;11262;50.308;9.270;2022-07-19T05:46:53;20.80;88.30
22194;DHT22;11262;50.308;9.270;2022-07-19T05:49:19;20.90;88.30
22194;DHT22;11262;50.308;9.270;2022-07-19T05:51:44;21.00;89.30
22194;DHT22;11262;50.308;9.270;2022-07-19T05:54:10;21.10;89.80
22194;DHT22;11262;50.308;9.270;2022-07-19T05:56:36;21.20;89.70
22194;DHT22;11262;50.308;9.270;2022-07-19T05:59:01;21.30;89.10
22194;DHT22;11262;50.308;9.270;2022-07-19T06:01:27;21.40;89.20
22194;DHT22;11262;50.308;9.270;2022-07-19T06:03:58;21.50;88.90
22194;DHT22;11262;50.308;9.270;2022-07-19T06:06:25;21.60;87.00
22194;DHT22;11262;50.308;9.270;2022-07-19T06:08:51;21.70;87.60
22194;DHT22;11262;50.308;9.270;2022-07-19T06:11:17;21.80;86.80
22194;DHT22;11262;50.308;9.270;2022-07-19T06:13:44;21.90;86.80
22194;DHT22;11262;50.308;9.270;2022-07-19T06:16:10;22.10;86.10
22194;DHT22;11262;50.308;9.270;2022-07-19T06:18:37;22.20;85.80
22194;DHT22;11262;50.308;9.270;2022-07-19T06:21:05;22.30;84.40
22194;DHT22;11262;50.308;9.270;2022-07-19T06:23:31;22.40;83.50
22194;DHT22;11262;50.308;9.270;2022-07-19T06:25:57;22.50;83.00
22194;DHT22;11262;50.308;9.270;2022-07-19T06:28:23;22.60;83.30
22194;DHT22;11262;50.308;9.270;2022-07-19T06:30:49;22.70;82.90
22194;DHT22;11262;50.308;9.270;2022-07-19T06:33:15;22.80;82.00
22194;DHT22;11262;50.308;9.270;2022-07-19T06:35:40;22.90;80.90
22194;DHT22;11262;50.308;9.270;2022-07-19T06:38:06;23.00;81.20
22194;DHT22;11262;50.308;9.270;2022-07-19T06:40:32;23.10;81.30
22194;DHT22;11262;50.308;9.270;2022-07-19T06:42:57;23.20;80.10
22194;DHT22;11262;50.308;9.270;2022-07-19T06:45:23;23.30;79.40
22194;DHT22;11262;50.308;9.270;2022-07-19T06:47:49;23.40;77.90
22194;DHT22;11262;50.308;9.270;2022-07-19T06:50:17;23.50;80.20
22194;DHT22;11262;50.308;9.270;2022-07-19T06:52:42;23.60;78.50
22194;DHT22;11262;50.308;9.270;2022-07-19T06:55:08;23.70;78.50
22194;DHT22;11262;50.308;9.270;2022-07-19T06:57:34;23.80;77.90
22194;DHT22;11262;50.308;9.270;2022-07-19T06:59:59;23.90;77.50
22194;DHT22;11262;50.308;9.270;2022-07-19T07:02:25;24.00;78.50
22194;DHT22;11262;50.308;9.270;2022-07-19T07:04:51;24.20;77.00
22194;DHT22;11262;50.308;9.270;2022-07-19T07:07:16;24.30;77.30
22194;DHT22;11262;50.308;9.270;2022-07-19T07:09:42;24.40;76.20
22194;DHT22;11262;50.308;9.270;2022-07-19T07:12:08;24.50;76.60
22194;DHT22;11262;50.308;9.270;2022-07-19T07:14:34;24.60;75.70
22194;DHT22;11262;50.308;9.270;2022-07-19T07:17:00;24.70;74.70
22194;DHT22;11262;50.308;9.270;2022-07-19T07:19:26;24.90;75.50
22194;DHT22;11262;50.308;9.270;2022-07-19T07:21:51;25.00;74.40
22194;DHT22;11262;50.308;9.270;2022-07-19T07:24:17;25.20;74.50
22194;DHT22;11262;50.308;9.270;2022-07-19T07:26:42;25.30;74.60
22194;DHT22;11262;50.308;9.270;2022-07-19T07:29:08;25.40;73.90
22194;DHT22;11262;50.308;9.270;2022-07-19T07:31:34;25.50;72.90
22194;DHT22;11262;50.308;9.270;2022-07-19T07:33:59;25.60;73.10
22194;DHT22;11262;50.308;9.270;2022-07-19T07:36:25;25.80;73.30
22194;DHT22;11262;50.308;9.270;2022-07-19T07:38:50;25.90;72.40
22194;DHT22;11262;50.308;9.270;2022-07-19T07:41:16;26.10;72.50
22194;DHT22;11262;50.308;9.270;2022-07-19T07:43:42;26.20;72.70
22194;DHT22;11262;50.308;9.270;2022-07-19T07:46:07;26.30;71.00
22194;DHT22;11262;50.308;9.270;2022-07-19T07:48:33;26.40;70.50
22194;DHT22;11262;50.308;9.270;2022-07-19T07:50:58;26.60;69.70
22194;DHT22;11262;50.308;9.270;2022-07-19T07:53:24;26.70;70.80
22194;DHT22;11262;50.308;9.270;2022-07-19T07:55:50;26.90;68.70
22194;DHT22;11262;50.308;9.270;2022-07-19T07:58:15;27.00;69.60
22194;DHT22;11262;50.308;9.270;2022-07-19T08:00:41;27.10;68.10
22194;DHT22;11262;50.308;9.270;2022-07-19T08:03:07;27.30;68.80
22194;DHT22;11262;50.308;9.270;2022-07-19T08:05:33;27.40;69.30
22194;DHT22;11262;50.308;9.270;2022-07-19T08:07:59;27.50;67.50
22194;DHT22;11262;50.308;9.270;2022-07-19T08:10:27;27.60;67.60
22194;DHT22;11262;50.308;9.270;2022-07-19T08:12:54;27.80;67.30
22194;DHT22;11262;50.308;9.270;2022-07-19T08:15:21;28.00;67.00
22194;DHT22;11262;50.308;9.270;2022-07-19T08:17:46;28.10;64.90
22194;DHT22;11262;50.308;9.270;2022-07-19T08:20:12;28.20;65.00
22194;DHT22;11262;50.308;9.270;2022-07-19T08:22:38;28.40;66.10
22194;DHT22;11262;50.308;9.270;2022-07-19T08:25:04;28.50;64.50
22194;DHT22;11262;50.308;9.270;2022-07-19T08:27:30;28.60;63.70
22194;DHT22;11262;50.308;9.270;2022-07-19T08:29:56;28.80;63.80
22194;DHT22;11262;50.308;9.270;2022-07-19T08:32:21;28.90;64.70
22194;DHT22;11262;50.308;9.270;2022-07-19T08:34:47;29.10;64.00
22194;DHT22;11262;50.308;9.270;2022-07-19T08:37:12;29.30;64.40
22194;DHT22;11262;50.308;9.270;2022-07-19T08:39:38;29.30;61.10
22194;DHT22;11262;50.308;9.270;2022-07-19T08:42:03;29.50;62.00
22194;DHT22;11262;50.308;9.270;2022-07-19T08:44:30;29.70;61.40
22194;DHT22;11262;50.308;9.270;2022-07-19T08:47:00;29.70;61.10
22194;DHT22;11262;50.308;9.270;2022-07-19T08:49:25;29.80;59.60
22194;DHT22;11262;50.308;9.270;2022-07-19T08:51:52;30.00;59.80
22194;DHT22;11262;50.308;9.270;2022-07-19T08:54:17;30.20;59.80
22194;DHT22;11262;50.308;9.270;2022-07-19T08:56:44;30.40;58.70
22194;DHT22;11262;50.308;9.270;2022-07-19T08:59:28;30.50;58.40
22194;DHT22;11262;50.308;9.270;2022-07-19T09:01:56;30.60;57.90
22194;DHT22;11262;50.308;9.270;2022-07-19T09:04:22;30.70;58.80
22194;DHT22;11262;50.308;9.270;2022-07-19T09:06:55;30.80;57.40
22194;DHT22;11262;50.308;9.270;2022-07-19T09:09:28;30.90;57.40
22194;DHT22;11262;50.308;9.270;2022-07-19T09:11:55;31.00;55.80
22194;DHT22;11262;50.308;9.270;2022-07-19T09:14:24;31.10;56.90
22194;DHT22;11262;50.308;9.270;2022-07-19T09:17:01;31.30;57.30
22194;DHT22;11262;50.308;9.270;2022-07-19T09:19:29;31.60;56.30
22194;DHT22;11262;50.308;9.270;2022-07-19T09:21:59;31.70;55.50
22194;DHT22;11262;50.308;9.270;2022-07-19T09:24:26;31.80;56.10
22194;DHT22;11262;50.308;9.270;2022-07-19T09:27:00;31.80;55.40
22194;DHT22;11262;50.308;9.270;2022-07-19T09:29:27;31.70;54.90
22194;DHT22;11262;50.308;9.270;2022-07-19T09:32:06;31.80;54.80
22194;DHT22;11262;50.308;9.270;2022-07-19T09:34:38;32.00;55.20
22194;DHT22;11262;50.308;9.270;2022-07-19T09:39:41;32.30;54.70
22194;DHT22;11262;50.308;9.270;2022-07-19T09:42:11;32.40;53.40
22194;DHT22;11262;50.308;9.270;2022-07-19T09:44:36;32.40;53.70
22194;DHT22;11262;50.308;9.270;2022-07-19T09:47:03;32.60;53.20
22194;DHT22;11262;50.308;9.270;2022-07-19T09:49:29;32.70;53.00
22194;DHT22;11262;50.308;9.270;2022-07-19T09:51:55;32.80;52.40
22194;DHT22;11262;50.308;9.270;2022-07-19T09:54:26;32.90;51.20
22194;DHT22;11262;50.308;9.270;2022-07-19T09:56:54;32.90;50.00
22194;DHT22;11262;50.308;9.270;2022-07-19T09:59:21;33.00;50.60
22194;DHT22;11262;50.308;9.270;2022-07-19T10:01:48;33.20;50.50
22194;DHT22;11262;50.308;9.270;2022-07-19T10:04:16;33.20;50.20
22194;DHT22;11262;50.308;9.270;2022-07-19T10:06:45;33.50;51.50
22194;DHT22;11262;50.308;9.270;2022-07-19T10:09:14;33.60;49.80
22194;DHT22;11262;50.308;9.270;2022-07-19T10:11:40;33.60;49.20
22194;DHT22;11262;50.308;9.270;2022-07-19T10:14:07;33.70;48.00
22194;DHT22;11262;50.308;9.270;2022-07-19T10:21:50;33.60;48.80
22194;DHT22;11262;50.308;9.270;2022-07-19T10:24:42;34.00;50.70
22194;DHT22;11262;50.308;9.270;2022-07-19T10:27:09;34.10;49.00
22194;DHT22;11262;50.308;9.270;2022-07-19T10:29:35;34.30;48.50
22194;DHT22;11262;50.308;9.270;2022-07-19T10:32:06;34.50;47.50
22194;DHT22;11262;50.308;9.270;2022-07-19T10:34:32;34.60;48.40
22194;DHT22;11262;50.308;9.270;2022-07-19T10:36:58;34.80;48.00
22194;DHT22;11262;50.308;9.270;2022-07-19T10:39:30;34.80;47.50
22194;DHT22;11262;50.308;9.270;2022-07-19T10:42:17;34.80;46.70
22194;DHT22;11262;50.308;9.270;2022-07-19T10:50:16;35.20;46.60
22194;DHT22;11262;50.308;9.270;2022-07-19T10:52:44;35.10;44.70
22194;DHT22;11262;50.308;9.270;2022-07-19T11:00:27;35.50;44.70
22194;DHT22;11262;50.308;9.270;2022-07-19T11:06:01;35.40;45.30
22194;DHT22;11262;50.308;9.270;2022-07-19T11:08:33;35.80;45.10
22194;DHT22;11262;50.308;9.270;2022-07-19T11:11:13;35.80;44.50
22194;DHT22;11262;50.308;9.270;2022-07-19T11:13:42;35.90;45.30
22194;DHT22;11262;50.308;9.270;2022-07-19T11:16:08;36.00;45.50
22194;DHT22;11262;50.308;9.270;2022-07-19T11:18:34;36.00;44.60
22194;DHT22;11262;50.308;9.270;2022-07-19T11:21:02;36.10;44.60
22194;DHT22;11262;50.308;9.270;2022-07-19T11:23:30;36.20;43.90
22194;DHT22;11262;50.308;9.270;2022-07-19T11:26:16;36.30;44.90
22194;DHT22;11262;50.308;9.270;2022-07-19T11:28:49;36.50;44.10
22194;DHT22;11262;50.308;9.270;2022-07-19T11:31:20;36.50;43.00
22194;DHT22;11262;50.308;9.270;2022-07-19T11:33:48;36.70;44.00
22194;DHT22;11262;50.308;9.270;2022-07-19T11:36:16;36.80;43.10
22194;DHT22;11262;50.308;9.270;2022-07-19T11:38:43;36.90;43.40
22194;DHT22;11262;50.308;9.270;2022-07-19T11:41:13;37.10;43.70
22194;DHT22;11262;50.308;9.270;2022-07-19T11:43:40;36.90;42.60
22194;DHT22;11262;50.308;9.270;2022-07-19T11:46:06;37.10;42.20
22194;DHT22;11262;50.308;9.270;2022-07-19T11:48:32;37.30;42.20
22194;DHT22;11262;50.308;9.270;2022-07-19T11:51:05;37.30;43.10
22194;DHT22;11262;50.308;9.270;2022-07-19T11:53:32;37.30;42.00
22194;DHT22;11262;50.308;9.270;2022-07-19T11:55:58;37.40;42.90
22194;DHT22;11262;50.308;9.270;2022-07-19T11:58:24;37.50;41.90
22194;DHT22;11262;50.308;9.270;2022-07-19T12:00:50;37.50;41.90
22194;DHT22;11262;50.308;9.270;2022-07-19T12:03:18;37.50;41.50
22194;DHT22;11262;50.308;9.270;2022-07-19T12:06:02;37.70;41.50
22194;DHT22;11262;50.308;9.270;2022-07-19T12:08:39;37.70;39.40
22194;DHT22;11262;50.308;9.270;2022-07-19T12:11:20;37.80;40.60
22194;DHT22;11262;50.308;9.270;2022-07-19T12:13:46;37.90;40.70
22194;DHT22;11262;50.308;9.270;2022-07-19T12:16:12;38.00;40.50
22194;DHT22;11262;50.308;9.270;2022-07-19T12:18:55;38.10;40.30
22194;DHT22;11262;50.308;9.270;2022-07-19T12:24:08;38.30;39.30
22194;DHT22;11262;50.308;9.270;2022-07-19T12:26:34;38.40;38.60
22194;DHT22;11262;50.308;9.270;2022-07-19T12:29:00;38.70;38.70
22194;DHT22;11262;50.308;9.270;2022-07-19T12:31:26;38.80;39.30
22194;DHT22;11262;50.308;9.270;2022-07-19T12:33:59;38.70;37.60
22194;DHT22;11262;50.308;9.270;2022-07-19T12:36:36;38.60;38.30
22194;DHT22;11262;50.308;9.270;2022-07-19T12:39:02;38.80;38.60
22194;DHT22;11262;50.308;9.270;2022-07-19T12:41:27;38.70;38.10
22194;DHT22;11262;50.308;9.270;2022-07-19T12:43:53;39.10;38.70
22194;DHT22;11262;50.308;9.270;2022-07-19T12:46:19;39.20;39.00
22194;DHT22;11262;50.308;9.270;2022-07-19T12:48:44;39.00;36.20
22194;DHT22;11262;50.308;9.270;2022-07-19T12:51:10;39.10;38.70
22194;DHT22;11262;50.308;9.270;2022-07-19T12:53:35;39.10;37.30
22194;DHT22;11262;50.308;9.270;2022-07-19T12:56:01;39.00;37.10
22194;DHT22;11262;50.308;9.270;2022-07-19T12:58:27;39.20;37.90
22194;DHT22;11262;50.308;9.270;2022-07-19T13:01:11;39.40;37.60
22194;DHT22;11262;50.308;9.270;2022-07-19T13:03:38;39.40;37.80
22194;DHT22;11262;50.308;9.270;2022-07-19T13:06:04;39.40;37.40
22194;DHT22;11262;50.308;9.270;2022-07-19T13:08:30;39.50;37.50
22194;DHT22;11262;50.308;9.270;2022-07-19T13:10:56;39.60;36.60
22194;DHT22;11262;50.308;9.270;2022-07-19T13:13:24;39.60;37.90
22194;DHT22;11262;50.308;9.270;2022-07-19T13:15:50;39.30;38.40
22194;DHT22;11262;50.308;9.270;2022-07-19T13:18:16;39.60;37.10
22194;DHT22;11262;50.308;9.270;2022-07-19T13:20:42;39.80;37.80
22194;DHT22;11262;50.308;9.270;2022-07-19T13:23:09;39.90;38.40
22194;DHT22;11262;50.308;9.270;2022-07-19T13:25:35;39.70;36.20
22194;DHT22;11262;50.308;9.270;2022-07-19T13:28:00;40.00;37.60
22194;DHT22;11262;50.308;9.270;2022-07-19T13:30:27;40.00;37.50
22194;DHT22;11262;50.308;9.270;2022-07-19T13:32:53;40.00;37.70
22194;DHT22;11262;50.308;9.270;2022-07-19T13:35:18;40.10;37.70
22194;DHT22;11262;50.308;9.270;2022-07-19T13:37:44;40.10;37.10
22194;DHT22;11262;50.308;9.270;2022-07-19T13:40:10;40.10;36.50
22194;DHT22;11262;50.308;9.270;2022-07-19T13:42:35;40.40;37.80
22194;DHT22;11262;50.308;9.270;2022-07-19T13:45:01;40.40;37.50
22194;DHT22;11262;50.308;9.270;2022-07-19T13:47:27;40.30;37.20
22194;DHT22;11262;50.308;9.270;2022-07-19T13:49:52;40.40;38.00
22194;DHT22;11262;50.308;9.270;2022-07-19T13:52:18;40.60;38.00
22194;DHT22;11262;50.308;9.270;2022-07-19T13:54:44;40.60;37.60
22194;DHT22;11262;50.308;9.270;2022-07-19T13:57:09;40.20;37.80
22194;DHT22;11262;50.308;9.270;2022-07-19T13:59:35;40.20;38.30
22194;DHT22;11262;50.308;9.270;2022-07-19T14:02:01;40.30;38.70
22194;DHT22;11262;50.308;9.270;2022-07-19T14:04:26;40.20;38.10
22194;DHT22;11262;50.308;9.270;2022-07-19T14:06:52;40.30;36.30
22194;DHT22;11262;50.308;9.270;2022-07-19T14:09:18;40.40;37.90
22194;DHT22;11262;50.308;9.270;2022-07-19T14:11:43;40.40;37.30
22194;DHT22;11262;50.308;9.270;2022-07-19T14:14:10;40.20;37.20
22194;DHT22;11262;50.308;9.270;2022-07-19T14:16:35;40.30;37.50
22194;DHT22;11262;50.308;9.270;2022-07-19T14:19:01;40.20;36.80
22194;DHT22;11262;50.308;9.270;2022-07-19T14:21:27;40.30;36.80
22194;DHT22;11262;50.308;9.270;2022-07-19T14:23:57;40.30;37.80
22194;DHT22;11262;50.308;9.270;2022-07-19T14:26:23;40.30;36.30
22194;DHT22;11262;50.308;9.270;2022-07-19T14:28:48;40.20;36.60
22194;DHT22;11262;50.308;9.270;2022-07-19T14:31:14;40.30;36.10
22194;DHT22;11262;50.308;9.270;2022-07-19T14:33:41;40.30;36.30
22194;DHT22;11262;50.308;9.270;2022-07-19T14:36:07;40.50;36.50
22194;DHT22;11262;50.308;9.270;2022-07-19T14:38:33;40.30;35.50
22194;DHT22;11262;50.308;9.270;2022-07-19T14:40:58;40.40;36.20
22194;DHT22;11262;50.308;9.270;2022-07-19T14:43:24;40.40;36.10
22194;DHT22;11262;50.308;9.270;2022-07-19T14:45:49;40.30;35.30
22194;DHT22;11262;50.308;9.270;2022-07-19T14:48:15;40.10;36.30
22194;DHT22;11262;50.308;9.270;2022-07-19T14:50:41;40.20;37.10
22194;DHT22;11262;50.308;9.270;2022-07-19T14:53:07;40.40;35.90
22194;DHT22;11262;50.308;9.270;2022-07-19T14:55:34;40.50;36.40
22194;DHT22;11262;50.308;9.270;2022-07-19T14:57:59;40.60;36.50
22194;DHT22;11262;50.308;9.270;2022-07-19T15:00:25;40.50;35.60
22194;DHT22;11262;50.308;9.270;2022-07-19T15:02:51;40.30;35.80
22194;DHT22;11262;50.308;9.270;2022-07-19T15:05:16;40.30;35.70
22194;DHT22;11262;50.308;9.270;2022-07-19T15:07:42;40.30;35.70
22194;DHT22;11262;50.308;9.270;2022-07-19T15:10:08;40.20;35.70
22194;DHT22;11262;50.308;9.270;2022-07-19T15:12:34;40.30;35.90
22194;DHT22;11262;50.308;9.270;2022-07-19T15:14:59;40.10;36.00
22194;DHT22;11262;50.308;9.270;2022-07-19T15:17:25;40.10;36.00
22194;DHT22;11262;50.308;9.270;2022-07-19T15:19:50;40.10;36.10
22194;DHT22;11262;50.308;9.270;2022-07-19T15:22:18;40.10;36.40
22194;DHT22;11262;50.308;9.270;2022-07-19T15:24:44;40.30;36.80
22194;DHT22;11262;50.308;9.270;2022-07-19T15:27:09;40.10;35.50
22194;DHT22;11262;50.308;9.270;2022-07-19T15:29:35;40.20;36.10
22194;DHT22;11262;50.308;9.270;2022-07-19T15:32:01;40.20;35.80
22194;DHT22;11262;50.308;9.270;2022-07-19T15:34:26;40.10;35.50
22194;DHT22;11262;50.308;9.270;2022-07-19T15:36:52;39.90;35.30
22194;DHT22;11262;50.308;9.270;2022-07-19T15:39:17;39.80;34.90
22194;DHT22;11262;50.308;9.270;2022-07-19T15:41:43;39.80;35.90
22194;DHT22;11262;50.308;9.270;2022-07-19T15:44:09;39.80;36.40
22194;DHT22;11262;50.308;9.270;2022-07-19T15:46:35;39.60;35.40
22194;DHT22;11262;50.308;9.270;2022-07-19T15:49:02;39.60;36.40
22194;DHT22;11262;50.308;9.270;2022-07-19T15:51:29;39.60;35.90